Time,TemperatureF,DewpointF,PressureIn,WindDirection,WindDirectionDegrees,WindSpeedMPH,WindSpeedGustMPH,Humidity,HourlyPrecipIn,Conditions,Clouds,dailyrainin,SoftwareType,DateUTC
2013-10-28 00:09:00,35.7,33.6,30.04,SSW,195,0.0,2.0,92,0.00,,,0.00,Wunderground v.1.15,2013-10-28 05:09:00,
2013-10-28 00:19:00,35.5,33.1,30.03,SSW,195,0.0,2.0,91,0.00,,,0.00,Wunderground v.1.15,2013-10-28 05:19:00,
2013-10-28 00:29:00,35.1,33.0,30.03,SSW,195,0.0,2.0,92,0.00,,,0.00,Wunderground v.1.15,2013-10-28 05:29:00,
2013-10-28 00:39:00,34.9,32.8,30.03,SSW,195,0.0,2.0,92,0.00,,,0.00,Wunderground v.1.15,2013-10-28 05:39:00,
2013-10-28 00:49:00,34.7,32.9,30.04,SSW,195,0.0,2.0,93,0.00,,,0.00,Wunderground v.1.15,2013-10-28 05:49:00,
2013-10-28 00:54:00,34.6,32.8,30.04,SSW,195,0.0,2.0,93,0.00,,,0.00,Wunderground v.1.15,2013-10-28 05:54:00,
2013-10-28 00:59:00,34.9,33.3,30.04,SSW,195,0.0,2.0,94,0.00,,,0.00,Wunderground v.1.15,2013-10-28 05:59:00,
2013-10-28 01:04:00,34.8,33.2,30.04,SSW,196,0.0,2.0,94,0.00,,,0.00,Wunderground v.1.15,2013-10-28 06:04:00,
2013-10-28 01:14:00,34.6,33.1,30.04,SSW,195,0.0,2.0,94,0.00,,,0.00,Wunderground v.1.15,2013-10-28 06:14:00,
2013-10-28 01:24:00,34.7,33.4,30.04,SSW,195,0.0,2.0,95,0.00,,,0.00,Wunderground v.1.15,2013-10-28 06:24:00,
2013-10-28 01:34:00,34.6,33.3,30.04,SSW,195,0.0,2.0,95,0.00,,,0.00,Wunderground v.1.15,2013-10-28 06:34:00,
2013-10-28 01:39:00,34.6,33.3,30.04,SSW,195,0.0,2.0,95,0.00,,,0.00,Wunderground v.1.15,2013-10-28 06:39:00,
2013-10-28 01:49:00,34.7,33.4,30.04,SSW,195,0.0,2.0,95,0.00,,,0.00,Wunderground v.1.15,2013-10-28 06:49:00,
2013-10-28 01:59:00,35.1,34.1,30.04,SSW,196,0.0,2.0,96,0.00,,,0.00,Wunderground v.1.15,2013-10-28 06:59:00,
2013-10-28 02:09:00,35.3,34.3,30.05,SSW,195,0.0,2.0,96,0.00,,,0.00,Wunderground v.1.15,2013-10-28 07:09:00,
2013-10-28 02:19:00,35.2,34.2,30.05,SSW,195,0.0,2.0,96,0.00,,,0.00,Wunderground v.1.15,2013-10-28 07:19:00,
2013-10-28 02:29:00,35.0,34.0,30.05,SSW,195,0.0,2.0,96,0.00,,,0.00,Wunderground v.1.15,2013-10-28 07:29:00,
2013-10-28 02:39:00,34.5,33.2,30.05,SSW,195,0.0,2.0,95,0.00,,,0.00,Wunderground v.1.15,2013-10-28 07:39:00,
2013-10-28 02:49:00,33.8,32.5,30.06,SSW,195,0.0,2.0,95,0.00,,,0.00,Wunderground v.1.15,2013-10-28 07:49:00,
2013-10-28 02:59:00,33.5,32.5,30.06,SSW,196,0.0,2.0,96,0.00,,,0.00,Wunderground v.1.15,2013-10-28 07:59:00,
2013-10-28 03:09:00,33.6,32.6,30.06,SSW,196,0.0,2.0,96,0.00,,,0.00,Wunderground v.1.15,2013-10-28 08:09:00,
2013-10-28 03:19:00,33.5,32.5,30.06,SSW,195,0.0,2.0,96,0.00,,,0.00,Wunderground v.1.15,2013-10-28 08:19:00,
2013-10-28 03:29:00,33.4,32.4,30.06,SSW,195,0.0,2.0,96,0.00,,,0.00,Wunderground v.1.15,2013-10-28 08:29:00,
2013-10-28 03:39:00,33.2,32.4,30.07,SSW,195,0.0,2.0,97,0.00,,,0.00,Wunderground v.1.15,2013-10-28 08:39:00,
2013-10-28 03:49:00,32.7,31.7,30.07,SSW,195,0.0,2.0,96,0.00,,,0.00,Wunderground v.1.15,2013-10-28 08:49:00,
2013-10-28 03:59:00,33.5,32.7,30.07,SSW,195,0.0,2.0,97,0.00,,,0.00,Wunderground v.1.15,2013-10-28 08:59:00,
2013-10-28 04:09:00,32.9,32.1,30.07,SSW,196,0.0,2.0,97,0.00,,,0.00,Wunderground v.1.15,2013-10-28 09:09:00,
2013-10-28 04:19:00,33.3,32.5,30.07,SSW,196,0.0,2.0,97,0.00,,,0.00,Wunderground v.1.15,2013-10-28 09:19:00,
2013-10-28 04:29:00,32.7,31.9,30.07,SSW,195,0.0,2.0,97,0.00,,,0.00,Wunderground v.1.15,2013-10-28 09:29:00,
2013-10-28 04:39:00,32.5,31.7,30.08,SSW,196,0.0,2.0,97,0.00,,,0.00,Wunderground v.1.15,2013-10-28 09:39:00,
2013-10-28 04:49:00,32.2,31.4,30.08,SSW,196,0.0,2.0,97,0.00,,,0.00,Wunderground v.1.15,2013-10-28 09:49:00,
2013-10-28 04:59:00,32.5,32.0,30.08,SSW,195,0.0,2.0,98,0.00,,,0.00,Wunderground v.1.15,2013-10-28 09:59:00,
2013-10-28 05:09:00,32.4,31.9,30.09,SSW,196,0.0,2.0,98,0.00,,,0.00,Wunderground v.1.15,2013-10-28 10:09:00,
2013-10-28 05:19:00,31.8,31.0,30.09,SSW,195,0.0,2.0,97,0.00,,,0.00,Wunderground v.1.15,2013-10-28 10:19:00,
2013-10-28 05:29:00,31.7,30.9,30.10,SSW,195,0.0,2.0,97,0.00,,,0.00,Wunderground v.1.15,2013-10-28 10:29:00,
2013-10-28 05:39:00,32.6,32.1,30.10,SSW,195,0.0,2.0,98,0.00,,,0.00,Wunderground v.1.15,2013-10-28 10:39:00,
2013-10-28 05:49:00,33.4,32.9,30.10,SSW,195,0.0,2.0,98,0.00,,,0.00,Wunderground v.1.15,2013-10-28 10:49:00,
2013-10-28 05:59:00,32.8,32.3,30.11,SSW,195,0.0,2.0,98,0.00,,,0.00,Wunderground v.1.15,2013-10-28 10:59:00,
2013-10-28 06:09:00,32.5,32.0,30.11,SSW,195,0.0,2.0,98,0.00,,,0.00,Wunderground v.1.15,2013-10-28 11:09:00,
2013-10-28 06:19:00,33.0,32.5,30.11,SSW,195,0.0,2.0,98,0.00,,,0.00,Wunderground v.1.15,2013-10-28 11:19:00,
2013-10-28 06:29:00,32.8,32.3,30.12,SSW,195,0.0,2.0,98,0.00,,,0.00,Wunderground v.1.15,2013-10-28 11:29:00,
2013-10-28 06:39:00,32.7,32.2,30.12,SSW,195,0.0,2.0,98,0.00,,,0.00,Wunderground v.1.15,2013-10-28 11:39:00,
2013-10-28 06:49:00,32.6,32.1,30.13,SSW,195,0.0,2.0,98,0.00,,,0.00,Wunderground v.1.15,2013-10-28 11:49:00,
2013-10-28 06:59:00,32.5,32.0,30.12,SSW,196,0.0,2.0,98,0.00,,,0.00,Wunderground v.1.15,2013-10-28 11:59:00,
2013-10-28 07:09:00,32.8,32.3,30.12,SSW,195,0.0,2.0,98,0.00,,,0.00,Wunderground v.1.15,2013-10-28 12:09:00,
2013-10-28 07:19:00,32.8,32.3,30.13,SSW,195,0.0,2.0,98,0.00,,,0.00,Wunderground v.1.15,2013-10-28 12:19:00,
2013-10-28 07:29:00,34.3,33.8,30.13,SSW,195,0.0,2.0,98,0.00,,,0.00,Wunderground v.1.15,2013-10-28 12:29:00,
2013-10-28 07:39:00,35.2,34.7,30.13,SSW,195,0.0,2.0,98,0.00,,,0.00,Wunderground v.1.15,2013-10-28 12:39:00,
2013-10-28 07:49:00,36.0,35.5,30.14,SSW,195,0.0,2.0,98,0.00,,,0.00,Wunderground v.1.15,2013-10-28 12:49:00,
2013-10-28 07:59:00,38.5,38.2,30.14,SSW,195,0.0,2.0,99,0.00,,,0.00,Wunderground v.1.15,2013-10-28 12:59:00,
2013-10-28 08:09:00,40.9,40.6,30.14,SSW,195,0.0,2.0,99,0.00,,,0.00,Wunderground v.1.15,2013-10-28 13:09:00,
2013-10-28 08:19:00,42.3,42.0,30.14,SSW,196,0.0,2.0,99,0.00,,,0.00,Wunderground v.1.15,2013-10-28 13:19:00,
2013-10-28 08:29:00,43.3,43.0,30.15,SSW,195,0.0,2.0,99,0.00,,,0.00,Wunderground v.1.15,2013-10-28 13:29:00,
2013-10-28 08:34:00,44.0,43.7,30.15,SSW,195,0.0,2.0,99,0.00,,,0.00,Wunderground v.1.15,2013-10-28 13:34:00,
2013-10-28 08:44:00,45.4,45.1,30.16,SSW,196,0.0,2.0,99,0.00,,,0.00,Wunderground v.1.15,2013-10-28 13:44:00,
2013-10-28 08:54:00,45.4,45.1,30.16,South,173,0.0,2.0,99,0.00,,,0.00,Wunderground v.1.15,2013-10-28 13:54:00,
2013-10-28 09:04:00,45.7,45.4,30.17,South,173,0.0,2.0,99,0.00,,,0.00,Wunderground v.1.15,2013-10-28 14:04:00,
2013-10-28 09:09:00,46.3,46.0,30.17,South,173,0.0,2.0,99,0.00,,,0.00,Wunderground v.1.15,2013-10-28 14:09:00,
2013-10-28 09:19:00,47.2,46.9,30.17,SSE,163,0.0,2.0,99,0.00,,,0.00,Wunderground v.1.15,2013-10-28 14:19:00,
2013-10-28 09:29:00,47.8,47.5,30.17,ESE,108,0.0,2.0,99,0.00,,,0.00,Wunderground v.1.15,2013-10-28 14:29:00,
2013-10-28 09:39:00,48.7,48.4,30.17,ESE,112,0.0,2.0,99,0.00,,,0.00,Wunderground v.1.15,2013-10-28 14:39:00,
2013-10-28 09:49:00,49.2,48.9,30.18,SE,128,0.0,2.0,99,0.00,,,0.00,Wunderground v.1.15,2013-10-28 14:49:00,
2013-10-28 09:54:00,49.3,49.0,30.18,ESE,113,0.0,2.0,99,0.00,,,0.00,Wunderground v.1.15,2013-10-28 14:54:00,
2013-10-28 10:04:00,49.8,49.5,30.18,ESE,119,0.0,2.0,99,0.00,,,0.00,Wunderground v.1.15,2013-10-28 15:04:00,
2013-10-28 10:14:00,50.1,49.8,30.19,ESE,103,0.0,2.0,99,0.00,,,0.00,Wunderground v.1.15,2013-10-28 15:14:00,
2013-10-28 10:24:00,50.6,50.1,30.19,ENE,68,0.0,2.0,98,0.00,,,0.00,Wunderground v.1.15,2013-10-28 15:24:00,
2013-10-28 10:34:00,51.0,50.5,30.19,ESE,108,0.0,2.0,98,0.00,,,0.00,Wunderground v.1.15,2013-10-28 15:34:00,
2013-10-28 10:44:00,51.8,51.3,30.19,ESE,104,0.0,2.0,98,0.00,,,0.00,Wunderground v.1.15,2013-10-28 15:44:00,
2013-10-28 10:54:00,52.5,52.0,30.19,ESE,105,0.0,2.0,98,0.00,,,0.00,Wunderground v.1.15,2013-10-28 15:54:00,
2013-10-28 11:04:00,53.3,52.8,30.19,NE,46,0.0,2.0,98,0.00,,,0.00,Wunderground v.1.15,2013-10-28 16:04:00,
2013-10-28 11:14:00,53.9,53.3,30.19,NE,48,0.0,2.0,98,0.00,,,0.00,Wunderground v.1.15,2013-10-28 16:14:00,
2013-10-28 11:24:00,54.9,54.3,30.19,ESE,116,0.0,2.0,98,0.00,,,0.00,Wunderground v.1.15,2013-10-28 16:24:00,
2013-10-28 11:34:00,56.1,55.3,30.19,North,6,0.0,2.0,97,0.00,,,0.00,Wunderground v.1.15,2013-10-28 16:34:00,
2013-10-28 11:44:00,57.0,55.0,30.19,East,86,0.0,2.0,93,0.00,,,0.00,Wunderground v.1.15,2013-10-28 16:44:00,
2013-10-28 11:54:00,58.4,55.5,30.19,NE,46,0.0,2.0,90,0.00,,,0.00,Wunderground v.1.15,2013-10-28 16:54:00,
2013-10-28 12:04:00,59.5,55.6,30.18,North,350,0.0,2.0,87,0.00,,,0.00,Wunderground v.1.15,2013-10-28 17:04:00,
2013-10-28 12:14:00,61.3,56.4,30.18,WNW,302,0.0,2.0,84,0.00,,,0.00,Wunderground v.1.15,2013-10-28 17:14:00,
2013-10-28 12:19:00,62.4,56.5,30.18,SE,142,0.0,2.0,81,0.00,,,0.00,Wunderground v.1.15,2013-10-28 17:19:00,
2013-10-28 12:24:00,62.6,55.6,30.18,SE,142,0.0,2.0,78,0.00,,,0.00,Wunderground v.1.15,2013-10-28 17:24:00,
2013-10-28 12:34:00,63.0,54.9,30.17,SW,221,0.0,2.0,75,0.00,,,0.00,Wunderground v.1.15,2013-10-28 17:34:00,
2013-10-28 12:44:00,64.3,55.5,30.17,West,270,1.0,2.0,73,0.00,,,0.00,Wunderground v.1.15,2013-10-28 17:44:00,
2013-10-28 12:54:00,64.9,54.9,30.16,ENE,75,0.0,2.0,70,0.00,,,0.00,Wunderground v.1.15,2013-10-28 17:54:00,
2013-10-28 13:04:00,66.4,55.1,30.16,SW,222,0.0,2.0,67,0.00,,,0.00,Wunderground v.1.15,2013-10-28 18:04:00,
2013-10-28 13:09:00,66.7,55.8,30.15,ESE,121,0.0,2.0,68,0.00,,,0.00,Wunderground v.1.15,2013-10-28 18:09:00,
2013-10-28 13:14:00,67.5,55.7,30.15,ENE,76,0.0,2.0,66,0.00,,,0.00,Wunderground v.1.15,2013-10-28 18:14:00,
2013-10-28 13:24:00,66.7,54.6,30.14,South,176,0.0,2.0,65,0.00,,,0.00,Wunderground v.1.15,2013-10-28 18:24:00,
2013-10-28 13:34:00,67.4,54.8,30.14,NNW,337,0.0,2.0,64,0.00,,,0.00,Wunderground v.1.15,2013-10-28 18:34:00,
2013-10-28 13:39:00,68.3,54.3,30.14,WNW,294,1.0,1.0,61,0.00,,,0.00,Wunderground v.1.15,2013-10-28 18:39:00,
2013-10-28 13:49:00,68.6,51.8,30.13,North,3,1.0,8.0,55,0.00,,,0.00,Wunderground v.1.15,2013-10-28 18:49:00,
2013-10-28 13:59:00,68.0,49.2,30.13,SW,235,4.0,4.0,51,0.00,,,0.00,Wunderground v.1.15,2013-10-28 18:59:00,
2013-10-28 14:09:00,69.2,49.2,30.13,ENE,58,1.0,3.0,49,0.00,,,0.00,Wunderground v.1.15,2013-10-28 19:09:00,
2013-10-28 14:19:00,69.0,50.1,30.12,East,101,2.0,2.0,51,0.00,,,0.00,Wunderground v.1.15,2013-10-28 19:19:00,
2013-10-28 14:29:00,69.0,49.0,30.12,ESE,103,2.0,2.0,49,0.00,,,0.00,Wunderground v.1.15,2013-10-28 19:29:00,
2013-10-28 14:39:00,69.4,48.9,30.11,East,91,2.0,2.0,48,0.00,,,0.00,Wunderground v.1.15,2013-10-28 19:39:00,
2013-10-28 14:49:00,69.7,47.4,30.12,NNE,26,2.0,3.0,45,0.00,,,0.00,Wunderground v.1.15,2013-10-28 19:49:00,
2013-10-28 14:59:00,69.2,47.5,30.11,SE,142,2.0,2.0,46,0.00,,,0.00,Wunderground v.1.15,2013-10-28 19:59:00,
2013-10-28 15:09:00,69.8,46.9,30.11,SE,125,2.0,2.0,44,0.00,,,0.00,Wunderground v.1.15,2013-10-28 20:09:00,
2013-10-28 15:19:00,71.0,44.8,30.11,WSW,246,1.0,1.0,39,0.00,,,0.00,Wunderground v.1.15,2013-10-28 20:19:00,
2013-10-28 15:29:00,69.8,45.7,30.11,North,357,3.0,3.0,42,0.00,,,0.00,Wunderground v.1.15,2013-10-28 20:29:00,
2013-10-28 15:39:00,69.9,43.8,30.11,North,349,3.0,3.0,39,0.00,,,0.00,Wunderground v.1.15,2013-10-28 20:39:00,
2013-10-28 15:49:00,69.6,44.8,30.11,NE,41,3.0,3.0,41,0.00,,,0.00,Wunderground v.1.15,2013-10-28 20:49:00,
2013-10-28 15:59:00,69.8,45.0,30.11,ENE,59,2.0,2.0,41,0.00,,,0.00,Wunderground v.1.15,2013-10-28 20:59:00,
2013-10-28 16:09:00,69.5,46.6,30.11,North,5,3.0,6.0,44,0.00,,,0.00,Wunderground v.1.15,2013-10-28 21:09:00,
2013-10-28 16:19:00,69.2,46.9,30.11,NNE,26,2.0,3.0,45,0.00,,,0.00,Wunderground v.1.15,2013-10-28 21:19:00,
2013-10-28 16:29:00,69.2,47.5,30.10,NW,321,2.0,2.0,46,0.00,,,0.00,Wunderground v.1.15,2013-10-28 21:29:00,
2013-10-28 16:39:00,68.9,47.3,30.11,NE,36,2.0,2.0,46,0.00,,,0.00,Wunderground v.1.15,2013-10-28 21:39:00,
2013-10-28 16:49:00,68.8,47.7,30.11,North,3,1.0,1.0,47,0.00,,,0.00,Wunderground v.1.15,2013-10-28 21:49:00,
2013-10-28 16:54:00,68.6,47.0,30.10,NNE,22,1.0,2.0,46,0.00,,,0.00,Wunderground v.1.15,2013-10-28 21:54:00,
2013-10-28 17:04:00,68.1,47.1,30.11,East,98,1.0,2.0,47,0.00,,,0.00,Wunderground v.1.15,2013-10-28 22:04:00,
2013-10-28 17:14:00,67.8,46.8,30.11,North,10,1.0,2.0,47,0.00,,,0.00,Wunderground v.1.15,2013-10-28 22:14:00,
2013-10-28 17:24:00,67.2,46.8,30.10,NNE,18,0.0,2.0,48,0.00,,,0.00,Wunderground v.1.15,2013-10-28 22:24:00,
2013-10-28 17:34:00,66.6,46.8,30.10,East,85,0.0,2.0,49,0.00,,,0.00,Wunderground v.1.15,2013-10-28 22:34:00,
2013-10-28 17:44:00,65.8,46.6,30.10,East,93,0.0,2.0,50,0.00,,,0.00,Wunderground v.1.15,2013-10-28 22:44:00,
2013-10-28 17:54:00,64.5,46.5,30.10,NE,53,0.0,2.0,52,0.00,,,0.00,Wunderground v.1.15,2013-10-28 22:54:00,
2013-10-28 18:04:00,62.9,46.5,30.11,East,96,0.0,2.0,55,0.00,,,0.00,Wunderground v.1.15,2013-10-28 23:04:00,
2013-10-28 18:14:00,60.9,46.9,30.12,East,96,0.0,2.0,60,0.00,,,0.00,Wunderground v.1.15,2013-10-28 23:14:00,
2013-10-28 18:24:00,58.5,46.8,30.12,NNW,343,0.0,2.0,65,0.00,,,0.00,Wunderground v.1.15,2013-10-28 23:24:00,
2013-10-28 18:34:00,56.7,46.3,30.12,NNW,332,0.0,2.0,68,0.00,,,0.00,Wunderground v.1.15,2013-10-28 23:34:00,
2013-10-28 18:39:00,55.9,46.3,30.12,NNW,332,0.0,2.0,70,0.00,,,0.00,Wunderground v.1.15,2013-10-28 23:39:00,
2013-10-28 18:49:00,54.6,46.5,30.13,NNW,332,0.0,2.0,74,0.00,,,0.00,Wunderground v.1.15,2013-10-28 23:49:00,
2013-10-28 18:54:00,55.3,47.2,30.13,NNW,332,0.0,2.0,74,0.00,,,0.00,Wunderground v.1.15,2013-10-28 23:54:00,
2013-10-28 19:04:00,55.4,47.2,30.14,NNW,331,0.0,2.0,74,0.00,,,0.00,Wunderground v.1.15,2013-10-29 00:04:00,
2013-10-28 19:14:00,54.9,46.8,30.14,NNW,332,0.0,2.0,74,0.00,,,0.00,Wunderground v.1.15,2013-10-29 00:14:00,
2013-10-28 19:24:00,54.2,47.1,30.14,NNW,332,0.0,2.0,77,0.00,,,0.00,Wunderground v.1.15,2013-10-29 00:24:00,
2013-10-28 19:34:00,55.3,47.5,30.15,NNW,332,0.0,2.0,75,0.00,,,0.00,Wunderground v.1.15,2013-10-29 00:34:00,
2013-10-28 19:44:00,55.5,47.3,30.15,NNW,332,0.0,2.0,74,0.00,,,0.00,Wunderground v.1.15,2013-10-29 00:44:00,
2013-10-28 19:54:00,55.3,47.2,30.16,NW,320,0.0,2.0,74,0.00,,,0.00,Wunderground v.1.15,2013-10-29 00:54:00,
2013-10-28 20:04:00,55.7,47.2,30.15,NW,322,0.0,2.0,73,0.00,,,0.00,Wunderground v.1.15,2013-10-29 01:04:00,
2013-10-28 20:14:00,56.1,47.6,30.15,NW,321,0.0,2.0,73,0.00,,,0.00,Wunderground v.1.15,2013-10-29 01:14:00,
2013-10-28 20:19:00,56.1,47.6,30.15,NW,321,0.0,2.0,73,0.00,,,0.00,Wunderground v.1.15,2013-10-29 01:19:00,
2013-10-28 20:29:00,55.5,47.7,30.16,NW,321,0.0,2.0,75,0.00,,,0.00,Wunderground v.1.15,2013-10-29 01:29:00,
2013-10-28 20:34:00,55.1,47.3,30.16,NW,321,0.0,2.0,75,0.00,,,0.00,Wunderground v.1.15,2013-10-29 01:34:00,
2013-10-28 20:44:00,55.5,47.7,30.16,NW,318,0.0,2.0,75,0.00,,,0.00,Wunderground v.1.15,2013-10-29 01:44:00,
2013-10-28 20:49:00,55.4,47.6,30.15,NW,318,0.0,2.0,75,0.00,,,0.00,Wunderground v.1.15,2013-10-29 01:49:00,
2013-10-28 20:59:00,54.8,47.4,30.15,NW,318,0.0,2.0,76,0.00,,,0.00,Wunderground v.1.15,2013-10-29 01:59:00,
2013-10-28 21:09:00,54.8,47.7,30.16,NW,322,0.0,2.0,77,0.00,,,0.00,Wunderground v.1.15,2013-10-29 02:09:00,
2013-10-28 21:19:00,54.5,47.4,30.16,NW,322,0.0,2.0,77,0.00,,,0.00,Wunderground v.1.15,2013-10-29 02:19:00,
2013-10-28 21:29:00,53.9,47.5,30.16,NW,322,0.0,2.0,79,0.00,,,0.00,Wunderground v.1.15,2013-10-29 02:29:00,
2013-10-28 21:39:00,52.9,47.2,30.16,NW,322,0.0,2.0,81,0.00,,,0.00,Wunderground v.1.15,2013-10-29 02:39:00,
2013-10-28 21:44:00,52.7,47.0,30.16,NW,322,0.0,2.0,81,0.00,,,0.00,Wunderground v.1.15,2013-10-29 02:44:00,
2013-10-28 21:49:00,52.5,47.2,30.17,NW,322,0.0,2.0,82,0.00,,,0.00,Wunderground v.1.15,2013-10-29 02:49:00,
2013-10-28 21:59:00,52.2,47.2,30.17,NW,322,0.0,2.0,83,0.00,,,0.00,Wunderground v.1.15,2013-10-29 02:59:00,
2013-10-28 22:09:00,52.2,47.5,30.16,NW,326,0.0,2.0,84,0.00,,,0.00,Wunderground v.1.15,2013-10-29 03:09:00,
2013-10-28 22:19:00,53.4,48.0,30.16,NE,36,0.0,2.0,82,0.00,,,0.00,Wunderground v.1.15,2013-10-29 03:19:00,
2013-10-28 22:29:00,54.4,48.0,30.16,NNE,12,0.0,2.0,79,0.00,,,0.00,Wunderground v.1.15,2013-10-29 03:29:00,
2013-10-28 22:39:00,53.9,47.9,30.17,NNE,25,0.0,2.0,80,0.00,,,0.00,Wunderground v.1.15,2013-10-29 03:39:00,
2013-10-28 22:49:00,52.9,47.9,30.17,ENE,65,0.0,2.0,83,0.00,,,0.00,Wunderground v.1.15,2013-10-29 03:49:00,
2013-10-28 22:54:00,53.6,48.2,30.16,NNE,25,0.0,2.0,82,0.00,,,0.00,Wunderground v.1.15,2013-10-29 03:54:00,
2013-10-28 23:04:00,54.7,48.6,30.17,NE,34,0.0,2.0,80,0.00,,,0.00,Wunderground v.1.15,2013-10-29 04:04:00,
2013-10-28 23:09:00,55.1,49.0,30.17,ESE,110,0.0,2.0,80,0.00,,,0.00,Wunderground v.1.15,2013-10-29 04:09:00,
2013-10-28 23:19:00,56.0,49.9,30.17,ENE,60,1.0,1.0,80,0.00,,,0.00,Wunderground v.1.15,2013-10-29 04:19:00,
2013-10-28 23:24:00,56.1,50.0,30.16,ESE,115,1.0,2.0,80,0.00,,,0.00,Wunderground v.1.15,2013-10-29 04:24:00,
2013-10-28 23:34:00,56.2,50.1,30.17,North,355,1.0,2.0,80,0.00,,,0.00,Wunderground v.1.15,2013-10-29 04:34:00,
2013-10-28 23:39:00,56.3,50.2,30.17,NE,51,1.0,1.0,80,0.00,,,0.00,Wunderground v.1.15,2013-10-29 04:39:00,
2013-10-28 23:49:00,56.1,50.3,30.17,NE,36,0.0,2.0,81,0.00,,,0.00,Wunderground v.1.15,2013-10-29 04:49:00,
2013-10-28 23:54:00,56.0,50.3,30.17,North,4,0.0,2.0,81,0.00,,,0.00,Wunderground v.1.15,2013-10-29 04:54:00,
2013-10-28 23:59:00,56.0,50.3,30.17,NE,47,1.0,3.0,81,0.00,,,0.00,Wunderground v.1.15,2013-10-29 04:59:00,